Time;durP1;ratioP1;P1;durP2;ratioP2;P2;SDS_P1;SDS_P2;PMS_P1;PMS_P2;Temp;Humidity;BMP_temperature;BMP_pressure;BME280_temperature;BME280_humidity;BME280_pressure;Samples;Min_cycle;Max_cycle;Signal;HPM_P1;HPM_P2
2022/04/26 03:37:56;;;;;;;6.90;3.40;;;;;;;8.75;81.22;101470.72;5118666;27;19920;-52
2022/04/26 03:40:23;;;;;;;9.48;3.35;;;;;;;8.78;81.50;101475.72;5116925;28;20050;-48
2022/04/26 03:42:51;;;;;;;9.45;3.25;;;;;;;8.69;81.91;101469.00;5116570;28;20031;-50
2022/04/26 03:45:19;;;;;;;8.73;3.20;;;;;;;8.54;83.37;101472.22;5125824;27;20069;-49
2022/04/26 03:47:46;;;;;;;7.28;3.40;;;;;;;8.47;84.64;101469.63;5137229;27;20072;-50
2022/04/26 03:50:14;;;;;;;8.07;4.00;;;;;;;8.47;84.56;101471.50;5137190;27;20494;-51
2022/04/26 03:52:42;;;;;;;9.63;3.78;;;;;;;8.43;84.93;101465.72;5135928;27;20477;-50
2022/04/26 03:55:09;;;;;;;8.70;3.78;;;;;;;8.45;85.16;101473.63;5121566;27;20401;-49
2022/04/26 03:57:37;;;;;;;6.53;3.10;;;;;;;8.39;85.61;101475.34;5116296;28;20040;-50
2022/04/26 04:00:06;;;;;;;7.60;3.40;;;;;;;8.38;86.57;101484.56;5119154;27;20047;-49
2022/04/26 04:02:34;;;;;;;9.50;4.05;;;;;;;8.41;86.37;101472.44;5126334;27;20032;-49
2022/04/26 04:05:02;;;;;;;7.22;3.55;;;;;;;8.42;86.17;101474.09;5115195;27;20079;-50
2022/04/26 04:07:29;;;;;;;8.45;4.03;;;;;;;8.43;86.43;101471.13;5114809;28;20044;-49
2022/04/26 04:09:57;;;;;;;15.00;4.32;;;;;;;8.41;86.84;101473.25;5115712;28;20032;-48
2022/04/26 04:12:25;;;;;;;8.40;3.70;;;;;;;8.38;87.23;101479.16;5115202;28;20507;-51
2022/04/26 04:14:53;;;;;;;8.80;3.80;;;;;;;8.40;87.22;101485.19;5115117;28;20050;-48
2022/04/26 04:17:21;;;;;;;7.90;3.67;;;;;;;8.35;87.36;101485.06;5113730;28;20071;-48
2022/04/26 04:19:48;;;;;;;8.45;3.97;;;;;;;8.34;87.71;101488.81;5115864;28;20047;-50
2022/04/26 04:22:16;;;;;;;9.70;4.40;;;;;;;8.37;87.77;101492.94;5116018;28;20051;-51
2022/04/26 04:24:43;;;;;;;7.85;3.97;;;;;;;8.35;87.46;101482.34;5114489;28;20044;-52
2022/04/26 04:27:11;;;;;;;8.25;3.90;;;;;;;8.38;87.76;101491.91;5114600;28;20054;-50
2022/04/26 04:29:44;;;;;;;8.48;4.10;;;;;;;8.37;87.61;101491.09;5115511;28;20078;-51
2022/04/26 04:32:12;;;;;;;9.95;4.05;;;;;;;8.42;87.99;101490.38;5115512;28;20128;-51
2022/04/26 04:34:40;;;;;;;8.35;4.13;;;;;;;8.24;88.57;101494.03;5113898;28;20035;-49
2022/04/26 04:37:08;;;;;;;8.85;3.72;;;;;;;8.23;89.26;101501.34;5130487;27;20063;-50
2022/04/26 04:39:36;;;;;;;8.43;4.25;;;;;;;8.27;88.91;101501.69;5120041;27;20067;-52
2022/04/26 04:42:05;;;;;;;10.07;4.30;;;;;;;8.18;89.20;101506.66;5115408;28;20043;-50
2022/04/26 04:44:33;;;;;;;10.40;4.10;;;;;;;8.19;89.36;101510.19;5115359;28;20045;-45
2022/04/26 04:47:00;;;;;;;9.77;4.43;;;;;;;8.22;89.42;101510.53;5123574;27;20043;-50
2022/04/26 04:49:28;;;;;;;9.43;3.85;;;;;;;8.25;89.37;101518.22;5134752;27;20047;-50
2022/04/26 04:51:56;;;;;;;9.95;4.18;;;;;;;8.30;89.64;101517.53;5119283;27;20040;-52
2022/04/26 04:54:24;;;;;;;8.32;3.88;;;;;;;8.23;89.08;101524.97;5115057;28;20035;-44
2022/04/26 04:56:51;;;;;;;10.93;4.47;;;;;;;8.06;90.18;101530.25;5114155;28;20093;-49
2022/04/26 04:59:21;;;;;;;11.02;4.95;;;;;;;8.00;91.32;101532.00;5116849;27;20077;-49
2022/04/26 05:01:49;;;;;;;10.98;5.18;;;;;;;7.97;91.14;101527.03;5124056;27;20054;-52
2022/04/26 05:04:17;;;;;;;9.18;4.35;;;;;;;8.03;91.49;101538.84;5114928;28;20070;-51
2022/04/26 05:06:44;;;;;;;11.88;4.82;;;;;;;8.15;91.58;101541.56;5113900;28;20501;-50
2022/04/26 05:09:12;;;;;;;11.45;4.80;;;;;;;8.22;90.59;101545.81;5114987;28;20051;-51
2022/04/26 05:11:40;;;;;;;8.68;4.50;;;;;;;8.22;89.73;101545.00;5114750;28;20043;-53
2022/04/26 05:14:07;;;;;;;8.63;4.47;;;;;;;8.21;90.02;101543.38;5113517;28;20040;-50
2022/04/26 05:16:35;;;;;;;14.63;5.03;;;;;;;8.20;90.01;101547.13;5112955;28;20043;-49
2022/04/26 05:19:03;;;;;;;9.40;4.28;;;;;;;8.19;90.73;101553.63;5113232;28;20036;-53
2022/04/26 05:21:30;;;;;;;10.07;4.53;;;;;;;8.17;90.40;101553.03;5114707;28;20072;-54
2022/04/26 05:26:44;;;;;;;9.35;4.07;;;;;;;8.22;90.19;101562.13;5113535;28;20067;-50
2022/04/26 05:29:12;;;;;;;11.98;4.88;;;;;;;8.28;90.28;101565.81;5113178;28;20119;-52
2022/04/26 05:31:39;;;;;;;14.55;4.78;;;;;;;8.29;90.46;101562.00;5114439;28;20043;-53
2022/04/26 05:34:07;;;;;;;9.18;4.18;;;;;;;8.28;90.51;101568.50;4757967;28;10000470;-53
2022/04/26 05:36:35;;;;;;;10.38;4.15;;;;;;;8.23;90.43;101574.66;5110068;28;20425;-53
2022/04/26 05:39:03;;;;;;;9.85;4.47;;;;;;;8.27;90.49;101575.84;5111563;28;20043;-51
2022/04/26 05:41:30;;;;;;;8.30;4.25;;;;;;;8.23;90.72;101580.06;5112529;28;20028;-54
2022/04/26 05:43:59;;;;;;;9.30;4.40;;;;;;;8.09;91.38;101574.03;5108747;28;20046;-53
2022/04/26 05:46:26;;;;;;;13.23;4.85;;;;;;;8.11;91.28;101579.22;5109926;28;20126;-52
2022/04/26 05:48:54;;;;;;;11.48;5.03;;;;;;;8.02;91.55;101578.72;5111394;28;20369;-49
2022/04/26 05:51:23;;;;;;;10.13;4.43;;;;;;;8.02;92.39;101573.28;5111388;28;20043;-48
2022/04/26 05:53:50;;;;;;;11.07;4.53;;;;;;;8.01;92.66;101577.09;5110610;28;20152;-51
2022/04/26 05:56:18;;;;;;;10.88;4.50;;;;;;;8.10;91.79;101575.69;5109431;28;20067;-54
2022/04/26 05:58:46;;;;;;;11.90;4.63;;;;;;;8.04;91.98;101582.03;5123359;27;20140;-53
2022/04/26 06:01:13;;;;;;;13.77;5.50;;;;;;;8.02;92.49;101588.75;5116660;27;20481;-53
2022/04/26 06:03:41;;;;;;;10.10;5.00;;;;;;;8.03;92.74;101584.97;5113020;28;20054;-51
2022/04/26 06:06:10;;;;;;;11.55;5.30;;;;;;;8.08;92.43;101590.53;5113886;28;20036;-53
2022/04/26 06:08:37;;;;;;;12.88;5.13;;;;;;;8.13;92.90;101595.25;5113714;28;20050;-50
2022/04/26 06:11:05;;;;;;;11.77;5.22;;;;;;;8.14;92.84;101596.94;5114078;28;20047;-49
2022/04/26 06:13:33;;;;;;;11.15;5.35;;;;;;;8.20;92.36;101599.56;5113755;28;20051;-50
2022/04/26 06:16:03;;;;;;;12.63;5.40;;;;;;;8.22;92.06;101597.41;5112797;28;20108;-50
2022/04/26 06:18:32;;;;;;;12.63;5.45;;;;;;;8.21;91.88;101603.09;5113446;28;20042;-50
2022/04/26 06:21:01;;;;;;;13.45;5.25;;;;;;;8.23;91.86;101606.41;5113804;28;20147;-49
2022/04/26 06:23:29;;;;;;;11.25;5.20;;;;;;;8.20;92.88;101615.00;5113314;28;20047;-46
2022/04/26 06:25:59;;;;;;;11.40;5.45;;;;;;;8.21;92.23;101611.22;5112487;28;20187;-46
2022/04/26 06:28:27;;;;;;;12.40;5.57;;;;;;;8.25;92.45;101620.53;5111783;28;20519;-46
2022/04/26 06:30:55;;;;;;;11.35;5.38;;;;;;;8.10;92.30;101618.28;5113445;28;20050;-49
2022/04/26 06:33:23;;;;;;;15.43;5.70;;;;;;;8.05;92.34;101616.25;5113205;28;20061;-49
2022/04/26 06:35:52;;;;;;;12.52;5.35;;;;;;;8.15;92.31;101614.88;5112563;28;20047;-44
2022/04/26 06:38:22;;;;;;;15.57;5.85;;;;;;;8.16;92.32;101621.97;5111231;28;20035;-45
2022/04/26 06:40:50;;;;;;;12.93;5.28;;;;;;;8.26;92.70;101622.22;5118266;28;20042;-47
2022/04/26 06:43:18;;;;;;;13.77;4.50;;;;;;;8.30;92.14;101634.28;5117432;28;20051;-46
2022/04/26 06:45:46;;;;;;;13.50;5.75;;;;;;;8.23;91.79;101628.13;5117899;28;20085;-48
2022/04/26 06:48:15;;;;;;;12.85;5.57;;;;;;;8.24;93.25;101629.75;5117291;28;20118;-45
2022/04/26 06:50:44;;;;;;;11.35;5.57;;;;;;;8.24;92.53;101641.44;5116662;28;20508;-47
2022/04/26 06:53:15;;;;;;;13.77;5.90;;;;;;;8.31;91.32;101639.44;5099298;28;20093;-52
2022/04/26 06:55:43;;;;;;;8.75;5.20;;;;;;;8.33;91.58;101639.22;5116069;28;20047;-50
2022/04/26 06:58:10;;;;;;;11.93;5.65;;;;;;;8.37;90.81;101642.28;5116666;28;20576;-51
2022/04/26 07:00:38;;;;;;;16.25;5.88;;;;;;;8.41;91.80;101647.06;5116370;28;20051;-48
2022/04/26 07:03:06;;;;;;;14.05;5.65;;;;;;;8.32;90.56;101643.00;5115388;28;20043;-53
2022/04/26 07:05:34;;;;;;;14.23;5.95;;;;;;;8.37;90.67;101655.88;5117525;28;20070;-49
2022/04/26 07:08:01;;;;;;;13.73;6.45;;;;;;;8.37;90.34;101639.56;5117111;27;20378;-50
2022/04/26 07:10:29;;;;;;;16.58;5.78;;;;;;;8.32;90.62;101643.00;5116216;28;20042;-49
2022/04/26 07:12:57;;;;;;;13.43;5.70;;;;;;;8.38;90.40;101646.69;5117121;28;20122;-49
2022/04/26 07:15:25;;;;;;;12.30;5.45;;;;;;;8.44;89.75;101648.47;5116250;28;20202;-53
2022/04/26 07:17:53;;;;;;;16.83;5.80;;;;;;;8.57;89.75;101642.03;5115587;27;20060;-52
2022/04/26 07:20:21;;;;;;;14.52;5.70;;;;;;;8.70;89.44;101639.06;5140706;27;20481;-49
2022/04/26 07:22:48;;;;;;;12.07;5.20;;;;;;;8.85;89.32;101642.16;5117123;28;20394;-47
2022/04/26 07:25:18;;;;;;;12.23;5.50;;;;;;;8.81;87.46;101651.84;5117392;28;20549;-49
2022/04/26 07:27:46;;;;;;;12.25;5.15;;;;;;;8.77;88.07;101645.22;5117171;28;20134;-50
2022/04/26 07:30:13;;;;;;;10.27;5.10;;;;;;;8.81;88.45;101653.75;5116057;28;20040;-48
2022/04/26 07:35:27;;;;;;;12.88;5.50;;;;;;;8.87;87.58;101658.22;5117320;28;20046;-52
2022/04/26 07:38:03;;;;;;;13.75;5.50;;;;;;;8.89;86.98;101670.50;5116895;28;20058;-51
2022/04/26 07:40:32;;;;;;;18.30;5.88;;;;;;;8.81;86.84;101668.16;5116248;28;20568;-48
2022/04/26 07:43:00;;;;;;;10.45;5.20;;;;;;;8.80;87.16;101661.03;5116928;28;20036;-48
2022/04/26 07:45:37;;;;;;;16.02;5.68;;;;;;;8.87;87.25;101661.75;5119451;27;20064;-52
2022/04/26 07:48:06;;;;;;;16.15;6.20;;;;;;;8.96;86.82;101662.25;5115280;27;20048;-51
2022/04/26 07:50:35;;;;;;;13.95;6.05;;;;;;;8.99;85.90;101664.47;5116211;28;20043;-52
2022/04/26 07:53:03;;;;;;;14.00;6.07;;;;;;;8.98;85.99;101673.72;5116425;28;20051;-53
2022/04/26 07:55:32;;;;;;;15.35;5.70;;;;;;;8.94;85.03;101678.78;5116686;28;20074;-48
2022/04/26 07:58:00;;;;;;;11.07;5.55;;;;;;;8.92;84.30;101675.50;5115991;28;20402;-48
2022/04/26 08:00:27;;;;;;;13.45;5.28;;;;;;;8.96;83.73;101676.66;5116184;28;20044;-51
2022/04/26 08:02:55;;;;;;;11.73;5.07;;;;;;;8.98;84.22;101684.56;5116206;28;20421;-52
2022/04/26 08:05:23;;;;;;;15.98;6.03;;;;;;;9.07;84.47;101682.34;5116367;28;20065;-48
2022/04/26 08:07:51;;;;;;;13.43;5.38;;;;;;;9.10;83.64;101682.69;5116145;28;20416;-48
2022/04/26 08:10:21;;;;;;;14.40;6.10;;;;;;;9.14;83.29;101683.06;5114937;28;20139;-51
2022/04/26 08:12:48;;;;;;;14.88;5.35;;;;;;;9.16;82.58;101686.34;5115456;28;20043;-49
2022/04/26 08:15:18;;;;;;;13.63;5.50;;;;;;;9.22;83.18;101695.44;5116259;28;20040;-48
2022/04/26 08:17:48;;;;;;;16.67;5.30;;;;;;;9.26;82.99;101692.03;5115509;28;20038;-49
2022/04/26 08:20:16;;;;;;;16.52;5.70;;;;;;;9.33;83.56;101703.59;5115667;28;20043;-50
2022/04/26 08:22:44;;;;;;;12.93;5.55;;;;;;;9.35;83.29;101696.00;5116193;28;20061;-48
2022/04/26 08:27:58;;;;;;;14.07;5.53;;;;;;;9.32;83.27;101703.84;5100101;28;20039;-50
2022/04/26 08:30:25;;;;;;;11.63;5.25;;;;;;;9.32;83.21;101701.94;5115486;28;20114;-52
2022/04/26 08:32:53;;;;;;;12.65;5.60;;;;;;;9.32;83.46;101712.81;5115922;28;20046;-49
2022/04/26 08:35:27;;;;;;;13.82;5.60;;;;;;;9.36;84.30;101714.00;5115516;28;20051;-50
2022/04/26 08:38:14;;;;;;;15.23;6.13;;;;;;;9.41;83.97;101712.47;5095406;28;20047;-46
2022/04/26 08:40:42;;;;;;;14.35;5.53;;;;;;;9.42;83.17;101717.66;5107885;28;20127;-51
2022/04/26 08:43:12;;;;;;;14.32;5.63;;;;;;;9.39;82.59;101724.41;5116415;28;20562;-49
2022/04/26 08:45:46;;;;;;;13.85;5.65;;;;;;;9.43;82.46;101718.47;5116287;28;20043;-46
2022/04/26 08:51:00;;;;;;;13.27;5.20;;;;;;;9.53;82.15;101713.28;5115328;28;20050;-48
2022/04/26 08:53:29;;;;;;;13.68;5.53;;;;;;;9.63;81.61;101716.22;5115448;28;20047;-46
2022/04/26 08:56:01;;;;;;;11.77;5.10;;;;;;;9.68;80.60;101721.75;5114885;28;20474;-47
2022/04/26 08:58:33;;;;;;;11.07;5.40;;;;;;;9.67;78.83;101717.41;5114383;28;20057;-50
2022/04/26 09:01:15;;;;;;;14.50;6.55;;;;;;;9.69;79.44;101717.97;5113586;28;20051;-47
2022/04/26 09:03:56;;;;;;;13.50;5.25;;;;;;;9.78;79.66;101718.41;5114224;28;20047;-53
2022/04/26 09:06:32;;;;;;;15.55;5.38;;;;;;;9.87;78.77;101713.44;5101154;28;20081;-51
2022/04/26 09:09:08;;;;;;;13.93;4.93;;;;;;;9.89;78.12;101719.47;5115454;28;20032;-49
2022/04/26 09:11:37;;;;;;;9.65;5.13;;;;;;;9.92;77.61;101722.53;5114788;27;20506;-52
2022/04/26 09:14:10;;;;;;;12.13;5.47;;;;;;;9.97;77.13;101725.34;5114191;28;20054;-49
2022/04/26 09:16:37;;;;;;;10.77;5.05;;;;;;;10.01;76.77;101736.59;5114942;28;20077;-51
2022/04/26 09:19:06;;;;;;;12.15;4.88;;;;;;;10.00;75.22;101734.91;5113560;28;20367;-50
2022/04/26 09:21:35;;;;;;;15.68;5.18;;;;;;;10.02;76.10;101740.97;5115003;28;20036;-51
2022/04/26 09:24:06;;;;;;;11.50;4.95;;;;;;;10.05;75.68;101743.19;5114605;28;20051;-48
2022/04/26 09:26:38;;;;;;;14.02;4.95;;;;;;;10.05;74.19;101754.06;5113292;28;20515;-50
2022/04/26 09:29:07;;;;;;;11.57;4.40;;;;;;;10.05;74.05;101731.47;5113430;28;20505;-49
2022/04/26 09:31:37;;;;;;;11.18;4.65;;;;;;;10.11;74.37;101733.25;5114043;28;20039;-49
2022/04/26 09:34:12;;;;;;;12.60;4.75;;;;;;;10.20;72.28;101739.97;5114831;28;20032;-48
2022/04/26 09:36:45;;;;;;;10.43;4.35;;;;;;;10.21;71.28;101745.16;5113148;28;20501;-50
2022/04/26 09:39:21;;;;;;;14.07;4.63;;;;;;;10.28;71.82;101752.38;5096585;28;20122;-51
2022/04/26 09:42:09;;;;;;;13.98;4.55;;;;;;;10.31;70.74;101751.91;5114223;28;20039;-49
2022/04/26 09:44:40;;;;;;;13.57;4.50;;;;;;;10.29;70.80;101760.31;5114615;28;20043;-48
2022/04/26 09:47:08;;;;;;;11.27;4.93;;;;;;;10.19;70.98;101774.53;5114274;28;20042;-48
2022/04/26 09:49:37;;;;;;;12.20;4.60;;;;;;;10.17;70.46;101764.94;5114500;28;20138;-50
2022/04/26 09:52:08;;;;;;;10.63;4.28;;;;;;;10.15;69.88;101765.19;5114369;28;20485;-52
2022/04/26 09:54:37;;;;;;;10.27;4.90;;;;;;;10.18;70.25;101764.72;5095917;28;20470;-51
2022/04/26 09:57:06;;;;;;;11.23;5.03;;;;;;;10.29;69.47;101767.66;5115253;27;20043;-52
2022/04/26 09:59:54;;;;;;;9.73;4.28;;;;;;;10.31;69.28;101762.78;5112892;27;20108;-52
2022/04/26 10:02:27;;;;;;;12.30;4.95;;;;;;;10.36;68.51;101777.31;5113288;27;20036;-53
2022/04/26 10:04:58;;;;;;;13.50;5.15;;;;;;;10.48;68.31;101773.75;5112908;28;20044;-49
2022/04/26 10:07:27;;;;;;;10.25;5.45;;;;;;;10.55;67.33;101780.69;5113354;28;20035;-50
2022/04/26 10:09:54;;;;;;;15.25;5.53;;;;;;;10.62;67.39;101781.38;5112849;28;20040;-50
2022/04/26 10:12:23;;;;;;;10.07;4.75;;;;;;;10.64;67.53;101771.03;5113525;28;20043;-49
2022/04/26 10:14:50;;;;;;;11.45;4.82;;;;;;;10.66;67.38;101770.81;5112933;28;20045;-46
2022/04/26 10:17:21;;;;;;;11.45;4.93;;;;;;;10.70;67.99;101777.41;5113594;27;20065;-51
2022/04/26 10:19:49;;;;;;;10.75;4.55;;;;;;;10.77;67.62;101772.63;5134152;27;20035;-51
2022/04/26 10:22:56;;;;;;;13.57;4.78;;;;;;;10.81;66.58;101781.97;5134187;27;20043;-50
2022/04/26 10:25:26;;;;;;;10.50;4.43;;;;;;;10.80;66.01;101788.50;5115166;27;20590;-48
2022/04/26 10:28:26;;;;;;;10.23;4.60;;;;;;;10.79;66.80;101791.47;5134136;27;20055;-49
2022/04/26 10:30:56;;;;;;;11.35;4.43;;;;;;;10.83;66.73;101784.47;5134279;27;20042;-49
2022/04/26 10:33:38;;;;;;;13.73;4.85;;;;;;;10.88;65.70;101790.00;5129203;27;20039;-51
2022/04/26 10:36:34;;;;;;;12.68;4.47;;;;;;;10.95;64.07;101785.22;5113397;28;20043;-49
2022/04/26 10:39:08;;;;;;;11.10;4.50;;;;;;;11.06;64.30;101784.31;5112253;28;20494;-48
2022/04/26 10:41:39;;;;;;;10.95;5.32;;;;;;;11.16;65.76;101791.00;5113729;28;20058;-48
2022/04/26 10:44:16;;;;;;;10.05;4.32;;;;;;;11.21;65.13;101796.56;5094612;28;20074;-50
2022/04/26 10:46:52;;;;;;;14.30;4.95;;;;;;;11.21;64.67;101791.94;5121878;28;20043;-48
2022/04/26 10:49:23;;;;;;;9.87;4.93;;;;;;;11.22;64.97;101795.47;5119038;28;20040;-52
2022/04/26 10:51:55;;;;;;;8.75;4.40;;;;;;;11.18;65.06;101792.41;5113634;28;20035;-51
2022/04/26 10:54:45;;;;;;;9.27;4.65;;;;;;;11.20;63.92;101797.63;5111014;28;20035;-52
2022/04/26 10:57:23;;;;;;;10.85;4.35;;;;;;;11.22;65.41;101800.94;5107386;28;20040;-48
2022/04/26 10:59:56;;;;;;;13.37;4.97;;;;;;;11.29;64.91;101801.59;4390697;28;10000416;-50
2022/04/26 11:02:26;;;;;;;10.30;5.10;;;;;;;11.32;64.39;101795.63;5109280;28;20071;-48
2022/04/26 11:05:02;;;;;;;10.13;5.43;;;;;;;11.35;64.82;101810.66;5096665;28;20134;-52
2022/04/26 11:07:30;;;;;;;;;;;;;;;11.34;64.50;101798.94;5110633;28;20048;-51
2022/04/26 11:09:59;;;;;;;10.73;4.93;;;;;;;11.36;64.18;101815.88;5108570;28;20809;-48
2022/04/26 11:12:29;;;;;;;11.65;5.10;;;;;;;11.35;63.35;101806.03;5109897;28;20051;-49
2022/04/26 11:15:00;;;;;;;14.68;5.65;;;;;;;11.39;64.10;101801.75;5109967;28;20044;-48
2022/04/26 11:17:29;;;;;;;12.70;5.93;;;;;;;11.39;63.60;101804.47;5108390;28;20059;-49
2022/04/26 11:20:04;;;;;;;9.65;5.35;;;;;;;11.47;62.92;101801.34;5110052;28;20075;-50
2022/04/26 11:22:32;;;;;;;9.15;4.68;;;;;;;11.49;62.26;101804.63;5109060;28;20054;-47
2022/04/26 11:28:17;;;;;;;12.48;6.22;;;;;;;11.59;62.63;101805.84;5108993;28;20046;-49
2022/04/26 11:30:48;;;;;;;12.77;5.68;;;;;;;11.66;62.19;101801.03;5115827;28;20506;-49
2022/04/26 11:33:24;;;;;;;10.02;5.72;;;;;;;11.71;62.10;101803.84;5114540;28;20047;-47
2022/04/26 11:35:58;;;;;;;9.90;5.43;;;;;;;11.79;61.79;101806.16;5123354;27;20124;-48
2022/04/26 11:38:27;;;;;;;10.70;5.43;;;;;;;11.86;62.07;101801.34;5115747;28;20556;-49
2022/04/26 11:40:59;;;;;;;16.40;6.07;;;;;;;11.93;62.40;101810.22;5116252;28;20560;-48
2022/04/26 11:43:33;;;;;;;18.23;5.50;;;;;;;11.99;62.77;101805.63;5115359;28;20046;-51
2022/04/26 11:46:02;;;;;;;11.63;5.55;;;;;;;11.96;61.18;101805.31;5115042;28;20126;-44
2022/04/26 11:48:33;;;;;;;12.95;5.63;;;;;;;11.94;61.72;101806.38;5116518;28;20052;-45
2022/04/26 11:51:02;;;;;;;11.18;5.45;;;;;;;11.95;60.99;101809.94;5115755;28;20039;-45
2022/04/26 11:53:31;;;;;;;13.10;5.80;;;;;;;11.97;60.49;101817.88;5115105;28;20082;-45
2022/04/26 11:56:04;;;;;;;10.25;5.65;;;;;;;11.92;61.15;101811.25;5115203;28;20047;-47
2022/04/26 11:58:35;;;;;;;11.13;5.68;;;;;;;11.96;60.79;101821.72;5115200;28;20047;-49
2022/04/26 12:01:17;;;;;;;10.20;5.85;;;;;;;11.97;60.32;101818.69;5074635;28;20068;-51
2022/04/26 12:03:51;;;;;;;11.77;6.10;;;;;;;11.99;59.55;101826.66;5075544;28;20037;-46
2022/04/26 12:06:26;;;;;;;10.23;5.57;;;;;;;12.00;60.29;101815.50;5075331;28;20444;-48
2022/04/26 12:08:55;;;;;;;10.65;5.88;;;;;;;12.05;59.69;101821.03;5075762;28;20119;-51
2022/04/26 12:11:28;;;;;;;12.27;5.35;;;;;;;12.13;59.61;101831.50;5075670;28;20036;-51
2022/04/26 12:13:59;;;;;;;12.02;5.63;;;;;;;12.23;59.10;101824.50;5074268;28;20486;-50
2022/04/26 12:16:28;;;;;;;11.63;5.53;;;;;;;12.32;59.03;101821.06;5075289;28;20063;-51
2022/04/26 12:18:58;;;;;;;10.30;5.50;;;;;;;12.36;58.51;101822.22;5075499;28;20040;-51
2022/04/26 12:21:26;;;;;;;9.65;5.03;;;;;;;12.36;58.16;101816.75;5074154;28;20157;-48
2022/04/26 12:24:17;;;;;;;12.18;5.80;;;;;;;12.39;58.92;101817.31;5074016;28;20068;-45
2022/04/26 12:26:55;;;;;;;11.75;5.43;;;;;;;12.34;57.01;101816.19;5073694;28;20044;-49
2022/04/26 12:29:24;;;;;;;11.13;5.60;;;;;;;12.30;56.78;101815.03;5075550;28;20052;-49
2022/04/26 12:31:52;;;;;;;11.70;5.60;;;;;;;12.26;56.37;101824.81;5074172;28;20082;-49
2022/04/26 12:34:29;;;;;;;15.45;5.78;;;;;;;12.28;56.85;101819.09;5075318;28;20044;-49
2022/04/26 12:37:08;;;;;;;9.52;5.25;;;;;;;12.34;56.94;101824.38;5074757;28;20040;-51
2022/04/26 12:39:44;;;;;;;10.40;5.43;;;;;;;12.47;56.42;101827.81;5058032;28;20406;-54
2022/04/26 12:42:31;;;;;;;12.60;5.40;;;;;;;12.55;55.49;101830.06;5074227;28;20050;-50
2022/04/26 12:45:06;;;;;;;9.77;4.72;;;;;;;12.53;54.88;101837.69;5074875;28;20040;-48
2022/04/26 12:50:33;;;;;;;11.40;4.90;;;;;;;12.63;53.71;101834.25;5074988;28;20048;-52
2022/04/26 12:53:06;;;;;;;9.00;4.68;;;;;;;12.74;53.62;101811.41;5073205;28;20064;-50
2022/04/26 12:55:40;;;;;;;9.77;5.20;;;;;;;12.79;52.85;101825.97;5073484;28;20033;-51
2022/04/26 12:58:13;;;;;;;13.57;4.90;;;;;;;12.69;54.21;101833.22;5089953;28;20040;-48
2022/04/26 13:00:42;;;;;;;10.95;5.07;;;;;;;12.72;52.54;101808.94;5109516;28;20060;-51
2022/04/26 13:03:11;;;;;;;12.93;4.95;;;;;;;12.82;53.21;101821.03;5096494;28;20066;-50
2022/04/26 13:05:46;;;;;;;11.90;5.13;;;;;;;12.88;52.05;101823.56;5115256;27;20116;-47
2022/04/26 13:08:15;;;;;;;14.63;4.40;;;;;;;12.92;52.43;101812.97;5119888;27;20039;-50
2022/04/26 13:10:43;;;;;;;8.98;4.80;;;;;;;12.96;51.42;101814.91;5122554;27;20039;-49
2022/04/26 13:13:12;;;;;;;11.45;4.60;;;;;;;13.00;51.53;101815.22;5125308;27;20055;-47
2022/04/26 13:15:44;;;;;;;11.70;4.38;;;;;;;13.00;51.45;101804.25;5131790;27;20071;-48
2022/04/26 13:18:14;;;;;;;9.88;4.97;;;;;;;13.01;52.01;101803.16;5129779;27;20036;-49
2022/04/26 13:20:43;;;;;;;8.60;4.38;;;;;;;13.04;51.98;101808.13;5122424;27;20486;-51
2022/04/26 13:23:16;;;;;;;8.48;4.45;;;;;;;13.11;51.94;101810.66;5114395;27;20507;-47
2022/04/26 13:25:44;;;;;;;13.68;4.70;;;;;;;13.08;50.91;101808.44;5114889;28;20458;-48
2022/04/26 13:28:12;;;;;;;10.85;4.97;;;;;;;12.95;52.15;101812.44;5124116;27;20396;-50
2022/04/26 13:30:40;;;;;;;11.80;4.53;;;;;;;12.91;52.80;101803.09;5132466;27;20035;-47
2022/04/26 13:33:08;;;;;;;12.48;5.07;;;;;;;12.93;52.21;101807.22;5122447;27;20043;-48
2022/04/26 13:35:39;;;;;;;10.70;4.25;;;;;;;12.93;52.78;101812.69;5114319;27;20045;-52
2022/04/26 13:38:12;;;;;;;10.43;4.88;;;;;;;12.94;52.56;101827.19;5115179;27;20044;-48
2022/04/26 13:40:40;;;;;;;10.10;4.90;;;;;;;12.86;51.64;101817.53;5118356;27;20048;-49
2022/04/26 13:43:09;;;;;;;10.57;4.68;;;;;;;12.79;54.04;101817.78;5112741;27;20032;-53
2022/04/26 13:45:38;;;;;;;18.38;5.10;;;;;;;12.89;52.87;101813.47;5132817;27;20043;-49
2022/04/26 13:48:11;;;;;;;10.25;5.18;;;;;;;13.00;51.95;101816.03;5113052;28;20047;-49
2022/04/26 13:50:39;;;;;;;10.68;4.88;;;;;;;12.99;51.89;101816.31;5114116;28;20079;-48
2022/04/26 13:53:07;;;;;;;9.95;4.70;;;;;;;13.04;52.61;101830.03;5113859;28;20054;-49
2022/04/26 13:55:35;;;;;;;11.57;4.95;;;;;;;13.03;51.62;101813.88;5114222;28;20075;-49
2022/04/26 13:58:08;;;;;;;11.32;5.45;;;;;;;13.05;51.55;101820.72;5114027;28;20085;-48
2022/04/26 14:00:36;;;;;;;9.68;4.70;;;;;;;13.11;51.97;101819.69;5113935;28;20062;-50
2022/04/26 14:03:06;;;;;;;9.45;4.50;;;;;;;13.14;51.59;101821.09;5112675;28;20063;-50
2022/04/26 14:05:34;;;;;;;7.82;4.80;;;;;;;13.16;51.74;101829.88;5114130;28;20130;-52
2022/04/26 14:08:07;;;;;;;13.70;5.38;;;;;;;13.20;50.73;101826.34;5114270;28;20477;-51
2022/04/26 14:10:35;;;;;;;10.95;4.90;;;;;;;13.15;49.81;101818.06;5113510;28;20036;-50
2022/04/26 14:13:02;;;;;;;10.63;4.97;;;;;;;13.14;50.82;101810.13;5113870;28;20050;-48
2022/04/26 14:23:49;;;;;;;;;;;;;;;13.05;50.99;101828.94;5111848;28;20400;-48
2022/04/26 14:26:17;;;;;;;11.18;5.03;;;;;;;13.10;50.25;101831.72;5113849;28;19927;-51
2022/04/26 14:28:45;;;;;;;11.48;5.40;;;;;;;13.08;49.87;101836.59;5113667;28;20404;-52
2022/04/26 14:31:12;;;;;;;11.57;4.32;;;;;;;13.05;49.53;101834.41;5113411;28;20043;-47
2022/04/26 14:33:40;;;;;;;10.77;4.68;;;;;;;12.96;49.68;101846.91;5113789;28;20371;-49
2022/04/26 14:36:08;;;;;;;8.85;4.63;;;;;;;12.93;50.30;101839.22;5112687;28;20043;-49
2022/04/26 14:38:35;;;;;;;8.30;4.50;;;;;;;12.96;49.69;101841.44;5113859;28;20039;-49
2022/04/26 14:41:03;;;;;;;7.80;4.38;;;;;;;12.94;49.44;101832.66;5113303;28;20118;-48
2022/04/26 14:43:31;;;;;;;6.10;3.67;;;;;;;12.96;49.95;101836.81;5113437;28;20047;-53
2022/04/26 14:45:59;;;;;;;10.40;4.90;;;;;;;13.02;51.20;101837.66;5113677;28;20027;-53
2022/04/26 14:48:29;;;;;;;10.32;5.03;;;;;;;13.02;49.73;101831.38;5095718;28;20138;-51
2022/04/26 14:50:57;;;;;;;10.52;4.65;;;;;;;13.02;49.69;101839.59;4406448;28;10021547;-52
2022/04/26 14:53:25;;;;;;;9.75;4.25;;;;;;;13.12;49.54;101839.66;5109761;28;20040;-50
2022/04/26 14:56:09;;;;;;;11.77;4.43;;;;;;;13.20;49.22;101852.88;5096893;28;20122;-51
2022/04/26 14:59:00;;;;;;;9.02;4.45;;;;;;;13.09;48.96;101843.75;5129514;27;20050;-50
2022/04/26 15:01:36;;;;;;;9.73;4.63;;;;;;;13.05;50.01;101855.47;5129688;27;20047;-50
2022/04/26 15:04:04;;;;;;;8.02;4.10;;;;;;;13.02;49.94;101845.88;5135014;27;20077;-50
2022/04/26 15:06:32;;;;;;;8.60;3.90;;;;;;;13.07;49.99;101848.66;5119526;27;20051;-51
2022/04/26 15:11:45;;;;;;;9.40;4.40;;;;;;;13.17;49.95;101848.72;5117720;27;20043;-50
2022/04/26 15:17:00;;;;;;;10.00;4.32;;;;;;;13.27;49.35;101848.03;5131140;27;20103;-51
2022/04/26 15:19:34;;;;;;;8.10;4.20;;;;;;;13.27;49.61;101848.03;5118367;27;20047;-53
2022/04/26 15:22:03;;;;;;;10.95;3.92;;;;;;;13.27;49.46;101852.66;5122396;27;20693;-48
2022/04/26 15:24:31;;;;;;;7.35;4.10;;;;;;;13.26;49.22;101842.81;5115707;27;20036;-52
2022/04/26 15:26:59;;;;;;;10.57;4.00;;;;;;;13.24;48.57;101842.25;5131868;27;20043;-52
2022/04/26 15:29:26;;;;;;;8.38;3.80;;;;;;;13.21;49.10;101847.13;5134299;27;20050;-50
2022/04/26 15:31:54;;;;;;;8.38;3.85;;;;;;;13.12;50.02;101840.50;5117121;27;20055;-50
2022/04/26 15:34:21;;;;;;;9.93;4.43;;;;;;;13.05;50.00;101850.81;5113647;28;20054;-51
2022/04/26 15:36:49;;;;;;;7.82;4.03;;;;;;;12.94;49.91;101851.78;5112073;28;20040;-53
2022/04/26 15:39:17;;;;;;;8.85;3.97;;;;;;;12.99;50.66;101857.34;5112430;28;20057;-49
2022/04/26 15:41:45;;;;;;;8.23;3.63;;;;;;;13.06;50.20;101847.00;5111617;28;20046;-48
2022/04/26 15:44:12;;;;;;;12.07;4.35;;;;;;;13.12;50.40;101862.38;5127003;27;20480;-50
2022/04/26 15:46:41;;;;;;;11.50;4.13;;;;;;;13.11;49.82;101863.47;5125469;27;20046;-48